Time;durP1;ratioP1;P1;durP2;ratioP2;P2;SDS_P1;SDS_P2;PMS_P1;PMS_P2;Temp;Humidity;BMP_temperature;BMP_pressure;BME280_temperature;BME280_humidity;BME280_pressure;Samples;Min_cycle;Max_cycle;Signal;HPM_P1;HPM_P2
2022/11/28 07:47:48;;;;;;;9.60;5.97;;;6.80;99.90;;;;;;5701289;23;20131;-79
2022/11/28 07:50:15;;;;;;;11.35;5.60;;;6.90;99.90;;;;;;4941072;29;20083;-80
2022/11/28 07:52:42;;;;;;;9.35;6.45;;;6.90;99.90;;;;;;4933117;29;20506;-80
2022/11/28 07:55:09;;;;;;;9.48;6.43;;;7.00;99.90;;;;;;4932475;29;20133;-78
2022/11/28 07:57:35;;;;;;;7.60;5.43;;;7.00;99.90;;;;;;4943539;29;20423;-78
2022/11/28 08:00:03;;;;;;;9.40;6.05;;;7.00;99.90;;;;;;4953771;29;20047;-78
2022/11/28 08:02:31;;;;;;;12.38;5.88;;;7.10;99.90;;;;;;4953649;29;20047;-78
2022/11/28 08:04:58;;;;;;;9.57;6.95;;;7.10;99.90;;;;;;4960094;29;20062;-79
2022/11/28 08:07:25;;;;;;;10.35;6.60;;;7.10;99.90;;;;;;4957584;28;20050;-81
2022/11/28 08:09:52;;;;;;;9.30;6.32;;;7.20;99.90;;;;;;4955092;28;20047;-78
2022/11/28 08:12:19;;;;;;;10.20;6.13;;;7.20;99.90;;;;;;4957169;29;20047;-78
2022/11/28 08:14:45;;;;;;;9.88;6.57;;;7.20;99.90;;;;;;4955705;29;20066;-78
2022/11/28 08:17:12;;;;;;;12.00;6.38;;;7.30;99.90;;;;;;4952786;29;20054;-78
2022/11/28 08:19:39;;;;;;;11.48;6.95;;;7.30;99.90;;;;;;4949386;29;20572;-78
2022/11/28 08:22:05;;;;;;;12.13;7.68;;;7.40;99.90;;;;;;4953412;29;20058;-79
2022/11/28 08:24:32;;;;;;;11.25;6.90;;;7.40;99.90;;;;;;4953229;29;20519;-79
2022/11/28 08:26:59;;;;;;;10.07;6.95;;;7.40;99.90;;;;;;4951403;28;20062;-79
2022/11/28 08:29:26;;;;;;;11.65;5.50;;;7.50;99.90;;;;;;4952516;29;20426;-78
2022/11/28 08:31:52;;;;;;;12.57;6.75;;;7.50;99.90;;;;;;4949727;29;20052;-79
2022/11/28 08:34:19;;;;;;;9.95;5.65;;;7.60;99.90;;;;;;4954589;28;20054;-78
2022/11/28 08:36:47;;;;;;;8.50;3.97;;;7.60;99.90;;;;;;4948678;29;20044;-78
2022/11/28 08:39:14;;;;;;;9.15;5.55;;;7.60;99.90;;;;;;4950127;29;20594;-78
2022/11/28 08:41:50;;;;;;;9.35;6.07;;;7.70;99.90;;;;;;4957219;28;20058;-77
2022/11/28 08:44:17;;;;;;;8.27;5.05;;;7.70;99.90;;;;;;4939962;29;20419;-79
2022/11/28 08:46:44;;;;;;;9.70;5.93;;;7.70;99.90;;;;;;4960404;28;20057;-77
2022/11/28 08:49:10;;;;;;;7.30;4.93;;;7.80;99.90;;;;;;4958104;29;20402;-77
2022/11/28 08:51:37;;;;;;;14.55;10.20;;;7.80;99.90;;;;;;4956409;28;20325;-78
2022/11/28 08:54:04;;;;;;;22.75;11.85;;;7.90;99.90;;;;;;4957081;28;20147;-78
2022/11/28 08:56:31;;;;;;;11.27;6.45;;;7.90;99.90;;;;;;4970299;28;20511;-76
2022/11/28 08:58:58;;;;;;;40.25;24.27;;;7.90;99.90;;;;;;4968143;28;20094;-78
2022/11/28 09:01:26;;;;;;;20.02;10.80;;;7.90;99.90;;;;;;4959825;28;20514;-78
2022/11/28 09:03:54;;;;;;;14.32;8.82;;;8.00;99.90;;;;;;4967825;28;20050;-78
2022/11/28 09:06:22;;;;;;;15.20;8.50;;;8.00;99.90;;;;;;4966763;28;20051;-77
2022/11/28 09:08:52;;;;;;;15.52;9.88;;;8.10;99.90;;;;;;4979241;28;20046;-77
2022/11/28 09:11:21;;;;;;;18.48;8.98;;;8.10;99.90;;;;;;4966985;28;20077;-78
2022/11/28 09:13:48;;;;;;;13.20;8.23;;;8.20;99.90;;;;;;4952057;28;20165;-78
2022/11/28 09:16:15;;;;;;;11.23;6.30;;;8.20;99.90;;;;;;4958063;28;20050;-78
2022/11/28 09:18:42;;;;;;;16.95;9.30;;;8.30;99.90;;;;;;4968975;28;20062;-78
2022/11/28 09:21:12;;;;;;;21.35;7.45;;;8.40;99.90;;;;;;4971996;28;20050;-79
2022/11/28 09:23:40;;;;;;;9.57;5.47;;;8.40;99.90;;;;;;4966813;28;20070;-78
2022/11/28 09:26:18;;;;;;;9.07;5.53;;;8.40;99.90;;;;;;4948228;28;20143;-76
2022/11/28 09:28:46;;;;;;;12.43;7.50;;;8.50;99.90;;;;;;4964147;28;20153;-78
2022/11/28 09:31:14;;;;;;;11.30;7.80;;;8.50;99.90;;;;;;4965285;28;20135;-78
2022/11/28 09:33:41;;;;;;;17.55;9.48;;;8.60;99.90;;;;;;4958627;28;20591;-78
2022/11/28 09:36:17;;;;;;;17.60;10.23;;;8.60;99.90;;;;;;4948814;28;20047;-78
2022/11/28 09:38:45;;;;;;;14.95;8.85;;;8.70;99.90;;;;;;4964033;28;20069;-78
2022/11/28 09:41:33;;;;;;;14.15;7.85;;;8.70;99.90;;;;;;4967603;28;20110;-78
2022/11/28 09:44:17;;;;;;;13.38;9.18;;;8.70;99.90;;;;;;4966087;28;20069;-78
2022/11/28 09:46:46;;;;;;;14.48;8.60;;;8.70;99.90;;;;;;4964297;28;20054;-78
2022/11/28 09:49:30;;;;;;;16.92;10.35;;;8.70;99.90;;;;;;4965689;28;20043;-77
2022/11/28 09:52:20;;;;;;;13.10;8.73;;;8.80;99.90;;;;;;4952409;28;20093;-77
2022/11/28 09:55:09;;;;;;;14.70;10.50;;;8.80;99.90;;;;;;4965134;28;20089;-77
2022/11/28 09:57:48;;;;;;;15.07;10.93;;;8.80;99.90;;;;;;4965079;28;20583;-78
2022/11/28 10:00:21;;;;;;;13.45;9.23;;;8.80;99.90;;;;;;4968907;28;20133;-78
2022/11/28 10:03:02;;;;;;;14.35;8.80;;;8.80;99.90;;;;;;4970077;28;20047;-78
2022/11/28 10:05:52;;;;;;;19.08;9.48;;;8.80;99.90;;;;;;4967360;28;20047;-76
2022/11/28 10:08:38;;;;;;;15.10;10.37;;;8.90;99.90;;;;;;4970099;28;20074;-77
2022/11/28 10:11:26;;;;;;;15.15;11.05;;;8.90;99.90;;;;;;4968317;28;20043;-77
2022/11/28 10:14:08;;;;;;;15.98;10.02;;;8.90;99.90;;;;;;4968047;28;20123;-78
2022/11/28 10:16:54;;;;;;;19.20;10.75;;;9.00;99.90;;;;;;4968072;28;20086;-77
2022/11/28 10:19:53;;;;;;;24.20;12.18;;;9.00;99.90;;;;;;4967928;28;20063;-79
2022/11/28 10:23:02;;;;;;;20.40;13.82;;;9.00;99.90;;;;;;4976658;28;20073;-78
2022/11/28 10:25:52;;;;;;;19.60;11.15;;;9.00;99.90;;;;;;4965267;28;20046;-77
2022/11/28 10:28:24;;;;;;;14.27;9.77;;;9.00;99.90;;;;;;4964799;28;20043;-78
2022/11/28 10:31:05;;;;;;;25.65;14.60;;;9.00;99.90;;;;;;4966960;28;20043;-78
2022/11/28 10:33:35;;;;;;;11.35;6.10;;;9.10;99.90;;;;;;4959794;28;20061;-77
2022/11/28 10:36:02;;;;;;;14.65;6.63;;;9.10;99.90;;;;;;4965099;28;20505;-77
2022/11/28 10:38:33;;;;;;;11.18;5.85;;;9.10;99.90;;;;;;4961768;28;20043;-78
2022/11/28 10:41:12;;;;;;;10.48;5.45;;;9.20;99.90;;;;;;4964378;28;20070;-78
2022/11/28 10:43:52;;;;;;;7.57;4.70;;;9.20;99.90;;;;;;4950453;28;20047;-78
2022/11/28 10:46:34;;;;;;;10.27;4.65;;;9.30;99.90;;;;;;4967260;28;20054;-77
2022/11/28 10:49:27;;;;;;;11.75;6.43;;;9.30;99.90;;;;;;4961413;28;20050;-78
2022/11/28 10:51:57;;;;;;;13.90;6.88;;;9.30;99.90;;;;;;4966641;28;20108;-79
2022/11/28 10:54:41;;;;;;;13.73;5.97;;;9.30;99.90;;;;;;4970447;28;20077;-79
2022/11/28 10:57:11;;;;;;;12.77;5.85;;;9.40;99.90;;;;;;4969063;28;20085;-79
2022/11/28 11:00:00;;;;;;;10.15;4.82;;;9.40;99.90;;;;;;4971018;28;20064;-79
2022/11/28 11:02:42;;;;;;;9.13;5.50;;;9.40;99.90;;;;;;4968468;28;20424;-79
2022/11/28 11:05:18;;;;;;;8.82;3.00;;;9.50;99.90;;;;;;4971803;28;20062;-79
2022/11/28 11:07:54;;;;;;;5.95;2.30;;;9.50;99.90;;;;;;4975061;28;20047;-79
2022/11/28 11:10:31;;;;;;;9.93;4.60;;;9.50;99.90;;;;;;4977953;28;20054;-79
2022/11/28 11:12:58;;;;;;;12.95;7.30;;;9.50;99.90;;;;;;4969294;28;20055;-79
2022/11/28 11:15:31;;;;;;;4.85;3.03;;;9.50;99.90;;;;;;4975942;28;20504;-80
2022/11/28 11:18:18;;;;;;;2.45;1.60;;;9.60;99.90;;;;;;4972612;28;20421;-81
2022/11/28 11:20:45;;;;;;;4.50;1.60;;;9.70;99.90;;;;;;4969199;28;20047;-80
2022/11/28 11:23:20;;;;;;;1.85;1.00;;;9.80;99.90;;;;;;4969279;28;20047;-78
2022/11/28 11:25:57;;;;;;;3.05;1.20;;;9.90;99.90;;;;;;4970238;28;20085;-80
2022/11/28 11:28:31;;;;;;;3.78;0.90;;;9.90;99.90;;;;;;4953189;28;20054;-79
2022/11/28 11:31:01;;;;;;;2.63;1.58;;;10.00;99.90;;;;;;4969712;28;20487;-79
2022/11/28 11:33:33;;;;;;;3.40;0.85;;;10.10;99.90;;;;;;4945506;28;20043;-78
2022/11/28 11:36:03;;;;;;;3.47;2.08;;;10.20;99.90;;;;;;4958832;28;20051;-79
2022/11/28 11:38:33;;;;;;;3.55;2.47;;;10.20;99.90;;;;;;4973668;28;20054;-79
2022/11/28 11:41:27;;;;;;;4.53;2.85;;;10.30;99.90;;;;;;4956023;28;20087;-78
2022/11/28 11:43:55;;;;;;;4.07;2.42;;;10.40;99.90;;;;;;4968497;28;20043;-79
2022/11/28 11:46:22;;;;;;;4.82;2.92;;;10.50;99.90;;;;;;4970369;28;20102;-80
2022/11/28 11:48:51;;;;;;;6.85;3.17;;;10.50;99.90;;;;;;4969131;28;20062;-80
2022/11/28 11:51:27;;;;;;;4.10;2.63;;;10.60;99.90;;;;;;4978542;28;20051;-80
2022/11/28 11:54:23;;;;;;;4.47;2.85;;;10.60;99.90;;;;;;4965970;28;20051;-80
2022/11/28 11:56:50;;;;;;;5.22;2.38;;;10.70;99.90;;;;;;4961645;28;20074;-80
2022/11/28 11:59:47;;;;;;;5.22;3.42;;;10.70;99.90;;;;;;4988017;28;20035;-81
2022/11/28 12:02:30;;;;;;;6.40;4.15;;;10.70;99.90;;;;;;4986545;28;20107;-80
2022/11/28 12:05:08;;;;;;;8.15;4.63;;;10.70;99.90;;;;;;4970059;28;20051;-80
2022/11/28 12:07:59;;;;;;;7.65;5.63;;;10.70;99.90;;;;;;4985793;28;20074;-80
2022/11/28 12:10:30;;;;;;;11.57;7.15;;;10.70;99.90;;;;;;4974914;28;20051;-78
2022/11/28 12:12:57;;;;;;;11.98;7.75;;;10.60;99.90;;;;;;4971193;28;20129;-80
2022/11/28 12:15:48;;;;;;;13.70;8.23;;;10.60;99.90;;;;;;4955143;28;20058;-80
2022/11/28 12:18:30;;;;;;;9.90;7.53;;;10.60;99.90;;;;;;4970548;28;20051;-80
2022/11/28 12:21:32;;;;;;;12.05;8.23;;;10.50;99.90;;;;;;4969172;28;20126;-78
2022/11/28 12:23:59;;;;;;;14.82;9.63;;;10.50;99.90;;;;;;4928170;28;20111;-79
2022/11/28 12:26:42;;;;;;;12.25;8.23;;;10.40;99.90;;;;;;4976289;28;20077;-80
2022/11/28 12:29:23;;;;;;;15.60;9.57;;;10.30;99.90;;;;;;4977594;28;20055;-80
2022/11/28 12:32:12;;;;;;;18.50;10.63;;;10.30;99.90;;;;;;4975442;28;20082;-80
2022/11/28 12:35:07;;;;;;;16.52;11.13;;;10.20;99.90;;;;;;4967755;29;20111;-80
2022/11/28 12:37:53;;;;;;;14.70;10.48;;;10.20;99.90;;;;;;4967790;28;20480;-80
2022/11/28 12:40:52;;;;;;;19.13;11.73;;;10.10;99.90;;;;;;4976119;28;20115;-80
2022/11/28 12:43:55;;;;;;;18.17;11.52;;;10.00;99.90;;;;;;4968626;28;20049;-78
2022/11/28 12:46:49;;;;;;;17.52;11.35;;;9.90;99.90;;;;;;4986880;28;20067;-79
2022/11/28 12:49:51;;;;;;;16.25;11.75;;;9.80;99.90;;;;;;4977423;28;20058;-80
2022/11/28 12:52:35;;;;;;;21.20;12.75;;;9.70;99.90;;;;;;4975265;28;20164;-79
2022/11/28 12:55:17;;;;;;;20.92;12.38;;;9.60;99.90;;;;;;4977755;28;20115;-80
2022/11/28 12:58:10;;;;;;;20.52;12.88;;;9.60;99.90;;;;;;4974219;28;20115;-79
2022/11/28 13:00:59;;;;;;;15.60;11.82;;;9.60;99.90;;;;;;4974254;28;20054;-81
2022/11/28 13:03:43;;;;;;;20.02;12.13;;;9.60;99.90;;;;;;4962243;28;20051;-80
2022/11/28 13:06:10;;;;;;;20.75;13.85;;;9.50;99.90;;;;;;4973557;28;20121;-80
2022/11/28 13:09:06;;;;;;;22.60;14.40;;;9.50;99.90;;;;;;4975337;28;20428;-80
2022/11/28 13:11:55;;;;;;;22.23;15.20;;;9.50;99.90;;;;;;4975643;28;20051;-80
2022/11/28 13:14:36;;;;;;;23.27;16.45;;;9.40;99.90;;;;;;4974499;28;20146;-80
2022/11/28 13:17:15;;;;;;;;;;;9.40;99.90;;;;;;4977122;28;20054;-79
2022/11/28 13:19:57;;;;;;;55.10;31.40;;;9.40;99.90;;;;;;4965051;28;19936;-79
2022/11/28 13:22:31;;;;;;;30.88;16.33;;;9.40;99.90;;;;;;4975281;28;20320;-80
2022/11/28 13:25:34;;;;;;;29.77;20.55;;;9.30;99.90;;;;;;4977901;28;20071;-80
2022/11/28 13:28:10;;;;;;;30.50;18.42;;;9.30;99.90;;;;;;4938800;29;20051;-80
2022/11/28 13:30:45;;;;;;;28.80;20.58;;;9.30;99.90;;;;;;4949344;29;20209;-80
2022/11/28 13:33:30;;;;;;;23.95;17.10;;;9.30;99.90;;;;;;4957694;28;20460;-80
2022/11/28 13:35:59;;;;;;;25.77;17.95;;;9.30;99.90;;;;;;4974161;28;20083;-79
2022/11/28 13:38:50;;;;;;;68.80;45.53;;;9.30;99.90;;;;;;4972902;28;20074;-79
2022/11/28 13:41:42;;;;;;;23.70;17.17;;;9.30;99.90;;;;;;4961176;28;20047;-79
2022/11/28 13:44:58;;;;;;;33.42;18.45;;;9.40;99.90;;;;;;4974838;28;20051;-80
2022/11/28 13:47:27;;;;;;;26.60;17.05;;;9.40;99.90;;;;;;4939746;28;20043;-80
2022/11/28 13:50:22;;;;;;;28.40;16.45;;;9.40;99.90;;;;;;4973472;28;20074;-79
2022/11/28 13:53:23;;;;;;;28.77;16.63;;;9.40;99.90;;;;;;4973231;28;20050;-79
2022/11/28 13:56:11;;;;;;;24.55;16.75;;;9.40;99.90;;;;;;4975320;28;20053;-81
2022/11/28 13:58:56;;;;;;;27.70;16.98;;;9.40;99.90;;;;;;4975328;28;20055;-80
2022/11/28 14:01:26;;;;;;;27.63;17.88;;;9.50;99.90;;;;;;4975321;28;20057;-77
2022/11/28 14:04:00;;;;;;;25.15;17.40;;;9.50;99.90;;;;;;4975354;28;20050;-80
2022/11/28 14:06:46;;;;;;;26.08;17.58;;;9.50;99.90;;;;;;4972801;28;20051;-78
2022/11/28 14:09:13;;;;;;;25.17;17.45;;;9.50;99.90;;;;;;4972951;28;20520;-79
2022/11/28 14:11:57;;;;;;;24.58;16.13;;;9.50;99.90;;;;;;4974248;28;20050;-80
2022/11/28 14:14:31;;;;;;;30.95;22.95;;;9.50;99.90;;;;;;4975520;28;20063;-81
2022/11/28 14:17:38;;;;;;;29.10;21.30;;;9.50;99.90;;;;;;4969408;28;20054;-80
2022/11/28 14:20:33;;;;;;;23.65;16.05;;;9.50;99.90;;;;;;4974113;28;20075;-80
2022/11/28 14:23:12;;;;;;;24.42;15.68;;;9.50;99.90;;;;;;4974663;28;20081;-81
2022/11/28 14:25:43;;;;;;;18.38;13.35;;;9.50;99.90;;;;;;4973652;28;20134;-80
2022/11/28 14:28:24;;;;;;;22.55;15.05;;;9.40;99.90;;;;;;4973110;28;20051;-80
2022/11/28 14:31:10;;;;;;;27.17;15.80;;;9.30;99.90;;;;;;4972230;28;20078;-80
2022/11/28 14:33:41;;;;;;;27.35;15.98;;;9.20;99.90;;;;;;4978872;28;20041;-80
2022/11/28 14:36:24;;;;;;;21.50;14.55;;;9.20;99.90;;;;;;4976201;28;20043;-79
2022/11/28 14:39:29;;;;;;;20.48;14.43;;;9.10;99.90;;;;;;4970427;28;20106;-79
2022/11/28 14:42:05;;;;;;;21.45;14.23;;;9.00;99.90;;;;;;4979908;28;20050;-79
2022/11/28 14:44:55;;;;;;;21.10;13.38;;;9.00;99.90;;;;;;4978374;28;20114;-80
2022/11/28 14:47:38;;;;;;;16.63;9.35;;;9.00;99.90;;;;;;4954758;28;20416;-77
2022/11/28 14:50:08;;;;;;;7.85;5.38;;;9.00;99.90;;;;;;4970596;28;20397;-78
2022/11/28 14:52:42;;;;;;;7.85;4.45;;;9.00;99.90;;;;;;4974193;28;20127;-80
2022/11/28 14:55:09;;;;;;;10.32;5.05;;;9.00;99.90;;;;;;4969836;28;20477;-80
2022/11/28 14:57:50;;;;;;;10.25;6.22;;;9.00;99.90;;;;;;4961558;28;20051;-80
2022/11/28 15:00:23;;;;;;;9.63;6.10;;;9.00;99.90;;;;;;4939246;29;20058;-80
2022/11/28 15:03:14;;;;;;;7.03;4.13;;;9.00;99.90;;;;;;4961880;29;20055;-80
2022/11/28 15:05:54;;;;;;;7.30;4.07;;;9.00;99.90;;;;;;4969346;28;20472;-80
2022/11/28 15:08:50;;;;;;;4.13;3.05;;;9.00;99.90;;;;;;4970192;28;20114;-79
2022/11/28 15:11:57;;;;;;;5.07;3.13;;;9.00;99.90;;;;;;4971175;28;20184;-80
2022/11/28 15:14:26;;;;;;;4.63;2.97;;;9.00;99.90;;;;;;4971077;28;20046;-80
2022/11/28 15:17:12;;;;;;;3.80;2.42;;;9.00;99.90;;;;;;4974322;28;20059;-79
2022/11/28 15:19:48;;;;;;;2.47;2.05;;;8.90;99.90;;;;;;4968740;28;20110;-80
2022/11/28 15:22:41;;;;;;;3.00;1.90;;;8.90;99.90;;;;;;4971867;28;20053;-79
2022/11/28 15:25:34;;;;;;;3.13;2.22;;;9.00;99.90;;;;;;4973527;28;20051;-79
2022/11/28 15:28:19;;;;;;;4.63;2.47;;;9.00;99.90;;;;;;4976148;28;20039;-80
2022/11/28 15:30:49;;;;;;;4.82;2.40;;;9.00;99.90;;;;;;4966728;28;20086;-80
2022/11/28 15:33:16;;;;;;;6.38;2.40;;;9.00;99.90;;;;;;4974871;28;20043;-79
2022/11/28 15:35:56;;;;;;;3.55;2.15;;;9.00;99.90;;;;;;4972028;28;20047;-79
2022/11/28 15:38:24;;;;;;;5.85;2.30;;;9.00;99.90;;;;;;4973890;28;20061;-79
2022/11/28 15:40:52;;;;;;;3.63;2.20;;;9.00;99.90;;;;;;4968471;28;20050;-79
2022/11/28 15:43:20;;;;;;;5.47;2.67;;;9.00;99.90;;;;;;4969166;28;20402;-77
2022/11/28 15:45:52;;;;;;;3.70;2.75;;;9.00;99.90;;;;;;4969261;28;20042;-79
2022/11/28 15:48:52;;;;;;;5.78;3.08;;;9.00;99.90;;;;;;4955029;28;20047;-79
2022/11/28 15:51:31;;;;;;;2.63;2.10;;;9.00;99.90;;;;;;4972637;28;20047;-79
2022/11/28 15:53:59;;;;;;;2.10;1.63;;;9.00;99.90;;;;;;4973977;28;20111;-78
2022/11/28 15:56:26;;;;;;;2.60;1.73;;;9.00;99.90;;;;;;4972517;28;20053;-80
2022/11/28 15:58:53;;;;;;;3.22;2.20;;;9.00;99.90;;;;;;4974850;28;20082;-80
2022/11/28 16:01:25;;;;;;;3.65;2.22;;;9.00;99.90;;;;;;4977314;28;20122;-78
2022/11/28 16:04:09;;;;;;;3.28;2.30;;;9.00;99.90;;;;;;4962982;28;20486;-79
2022/11/28 16:06:38;;;;;;;5.07;1.90;;;9.00;99.90;;;;;;4975242;28;20051;-79
2022/11/28 16:09:18;;;;;;;2.83;1.70;;;9.00;99.90;;;;;;4971093;28;20061;-78
2022/11/28 16:11:48;;;;;;;2.88;2.17;;;9.00;99.90;;;;;;4979331;28;20148;-77
2022/11/28 16:14:30;;;;;;;3.00;1.67;;;9.00;99.90;;;;;;4985227;28;20046;-80
2022/11/28 16:16:58;;;;;;;2.80;1.98;;;9.00;99.90;;;;;;4974513;28;20051;-78
2022/11/28 16:19:30;;;;;;;2.45;1.50;;;9.00;99.90;;;;;;4979268;28;20047;-79
2022/11/28 16:22:03;;;;;;;2.67;1.85;;;9.00;99.90;;;;;;4980536;28;20086;-79
2022/11/28 16:24:40;;;;;;;2.60;1.88;;;9.00;99.90;;;;;;4965814;28;20059;-79
2022/11/28 16:27:33;;;;;;;8.18;3.30;;;8.90;99.90;;;;;;4955935;28;20049;-79
2022/11/28 16:30:03;;;;;;;2.13;1.67;;;8.90;99.90;;;;;;4949665;28;20046;-78
2022/11/28 16:32:38;;;;;;;3.65;2.15;;;8.90;99.90;;;;;;4977408;28;20049;-79
2022/11/28 16:35:10;;;;;;;3.00;1.83;;;9.00;99.90;;;;;;4974437;28;20059;-78
2022/11/28 16:37:38;;;;;;;3.70;1.80;;;9.00;99.90;;;;;;4974478;28;20065;-80
2022/11/28 16:40:15;;;;;;;4.43;2.20;;;9.00;99.90;;;;;;4976616;28;20406;-80
2022/11/28 16:42:53;;;;;;;2.90;1.85;;;9.00;99.90;;;;;;4959473;28;20130;-78
2022/11/28 16:45:23;;;;;;;2.80;2.20;;;9.00;99.90;;;;;;4971733;28;20420;-80
2022/11/28 16:48:04;;;;;;;3.03;2.22;;;9.00;99.90;;;;;;4970804;28;20050;-78
2022/11/28 16:50:31;;;;;;;4.78;2.40;;;9.00;99.90;;;;;;4978410;28;20130;-83
2022/11/28 16:52:58;;;;;;;2.35;2.03;;;9.00;99.90;;;;;;4959531;28;20170;-78
2022/11/28 16:55:27;;;;;;;3.00;1.80;;;9.00;99.90;;;;;;4976265;28;20061;-80
2022/11/28 16:58:10;;;;;;;4.28;1.70;;;9.00;99.90;;;;;;4976726;28;20047;-79
2022/11/28 17:00:40;;;;;;;2.80;2.03;;;9.00;99.90;;;;;;4975442;28;20075;-79
2022/11/28 17:03:41;;;;;;;3.55;2.10;;;9.00;99.90;;;;;;4978105;28;20566;-76
2022/11/28 17:06:15;;;;;;;2.88;2.35;;;9.00;99.90;;;;;;4976502;28;20047;-80
2022/11/28 17:08:42;;;;;;;1.92;1.52;;;9.00;99.90;;;;;;4964412;28;20057;-80
2022/11/28 17:11:10;;;;;;;2.47;1.42;;;9.00;99.90;;;;;;4975312;28;20492;-80
2022/11/28 17:13:37;;;;;;;4.65;1.30;;;9.00;99.90;;;;;;4976722;28;20547;-80
2022/11/28 17:16:04;;;;;;;2.15;1.67;;;9.00;99.90;;;;;;4977479;28;20051;-80
2022/11/28 17:18:30;;;;;;;4.85;2.35;;;9.00;99.90;;;;;;4978430;28;20101;-80
2022/11/28 17:20:58;;;;;;;7.20;4.60;;;9.00;99.90;;;;;;4974026;28;20051;-80
2022/11/28 17:23:25;;;;;;;3.08;1.40;;;9.00;99.90;;;;;;4977242;28;20090;-80
2022/11/28 17:25:52;;;;;;;1.38;1.27;;;9.00;99.90;;;;;;4974316;28;20136;-80
2022/11/28 17:28:19;;;;;;;1.85;1.50;;;9.00;99.90;;;;;;4979253;28;20338;-79
2022/11/28 17:30:50;;;;;;;2.42;1.40;;;9.00;99.90;;;;;;4976129;28;20124;-79
2022/11/28 17:33:17;;;;;;;2.42;1.45;;;9.00;99.90;;;;;;4968861;29;20047;-78
2022/11/28 17:35:45;;;;;;;1.63;1.25;;;9.00;99.90;;;;;;4974756;28;20090;-79
2022/11/28 17:38:12;;;;;;;2.15;1.40;;;9.00;99.90;;;;;;4974501;28;20055;-78
2022/11/28 17:40:41;;;;;;;1.77;1.25;;;9.00;99.90;;;;;;4973615;28;20047;-79
2022/11/28 17:43:16;;;;;;;2.55;1.40;;;9.00;99.90;;;;;;4977984;28;20061;-78
2022/11/28 17:45:43;;;;;;;1.90;1.30;;;9.00;99.90;;;;;;4981900;28;20074;-78
2022/11/28 17:48:15;;;;;;;2.28;1.58;;;9.00;99.90;;;;;;4981626;28;20046;-79
2022/11/28 17:50:43;;;;;;;2.38;1.23;;;9.00;99.90;;;;;;4982758;28;20047;-79
2022/11/28 17:53:11;;;;;;;2.80;1.20;;;9.00;99.90;;;;;;4978701;28;20050;-80
2022/11/28 17:55:40;;;;;;;2.05;1.35;;;9.00;99.90;;;;;;4966754;28;20097;-79
2022/11/28 17:58:15;;;;;;;1.88;1.23;;;9.00;99.90;;;;;;4985595;28;20150;-79
2022/11/28 18:00:42;;;;;;;4.25;2.20;;;9.00;99.90;;;;;;4982270;28;20500;-79
2022/11/28 18:03:09;;;;;;;4.43;2.20;;;9.00;99.90;;;;;;4963387;29;20055;-80
2022/11/28 18:05:44;;;;;;;4.13;2.50;;;9.00;99.90;;;;;;4973712;28;20048;-79
2022/11/28 18:08:13;;;;;;;3.40;2.05;;;9.00;99.90;;;;;;4973622;28;20112;-79
2022/11/28 18:10:47;;;;;;;3.78;1.70;;;9.00;99.90;;;;;;4972916;28;20424;-80
2022/11/28 18:13:15;;;;;;;3.25;1.70;;;8.90;99.90;;;;;;4974811;28;20047;-79
2022/11/28 18:15:44;;;;;;;4.32;2.40;;;8.90;99.90;;;;;;4964907;28;20119;-79
2022/11/28 18:18:10;;;;;;;3.90;2.40;;;9.00;99.90;;;;;;4975107;28;20115;-79
2022/11/28 18:20:37;;;;;;;7.53;3.92;;;8.90;99.90;;;;;;4974966;28;20051;-79
2022/11/28 18:23:04;;;;;;;5.22;3.42;;;9.00;99.90;;;;;;4975228;28;20055;-79
2022/11/28 18:25:31;;;;;;;3.42;2.15;;;8.90;99.90;;;;;;4974620;28;20134;-79
2022/11/28 18:27:57;;;;;;;3.35;2.10;;;8.90;99.90;;;;;;4974031;28;20059;-78
2022/11/28 18:30:24;;;;;;;2.97;1.63;;;8.90;99.90;;;;;;4973745;28;20417;-79
2022/11/28 18:32:51;;;;;;;2.65;1.98;;;8.90;99.90;;;;;;4974286;28;20107;-78
2022/11/28 18:35:18;;;;;;;3.85;2.17;;;8.90;99.90;;;;;;4974140;28;20137;-79
2022/11/28 18:37:45;;;;;;;2.78;2.08;;;8.90;99.90;;;;;;4974336;28;20053;-79
2022/11/28 18:40:12;;;;;;;1.70;1.00;;;8.90;99.90;;;;;;4975310;28;20448;-79
2022/11/28 18:42:40;;;;;;;2.55;1.45;;;8.90;99.90;;;;;;4958485;28;20055;-79
2022/11/28 18:45:08;;;;;;;5.28;1.77;;;8.80;99.90;;;;;;4974071;28;20106;-80
2022/11/28 18:47:35;;;;;;;1.45;1.25;;;8.80;99.90;;;;;;4959013;28;20050;-79
2022/11/28 18:50:02;;;;;;;1.90;1.20;;;8.80;99.90;;;;;;4973485;28;20055;-79
2022/11/28 18:52:28;;;;;;;2.28;1.40;;;8.80;99.90;;;;;;4975381;28;20134;-81
2022/11/28 18:54:55;;;;;;;4.63;2.10;;;8.90;99.90;;;;;;4973450;28;20507;-78
2022/11/28 18:57:22;;;;;;;1.17;1.00;;;8.80;99.90;;;;;;4973171;28;20065;-79
2022/11/28 18:59:49;;;;;;;3.35;1.70;;;8.80;99.90;;;;;;4973584;28;20552;-79
2022/11/28 19:02:21;;;;;;;1.75;1.10;;;8.90;99.90;;;;;;4976618;28;20055;-77
2022/11/28 19:04:47;;;;;;;1.42;0.98;;;8.90;99.90;;;;;;4976511;28;20085;-78
2022/11/28 19:07:14;;;;;;;4.55;1.60;;;8.90;99.90;;;;;;4972305;28;20049;-78
2022/11/28 19:09:42;;;;;;;3.58;1.95;;;8.90;99.90;;;;;;4976718;28;20046;-79
2022/11/28 19:12:10;;;;;;;4.05;2.15;;;8.90;99.90;;;;;;4974058;28;20047;-79
2022/11/28 19:14:37;;;;;;;2.47;1.58;;;8.90;99.90;;;;;;4955792;29;20115;-78
2022/11/28 19:17:04;;;;;;;1.30;1.05;;;8.90;99.90;;;;;;4975675;28;20516;-78
2022/11/28 19:19:30;;;;;;;2.03;1.00;;;8.80;99.90;;;;;;4973410;28;20059;-79
2022/11/28 19:21:57;;;;;;;2.08;1.25;;;8.90;99.90;;;;;;4976239;28;20069;-79
2022/11/28 19:24:24;;;;;;;2.97;1.38;;;8.80;99.90;;;;;;4976017;28;20496;-78
2022/11/28 19:26:50;;;;;;;1.83;1.13;;;8.80;99.90;;;;;;4971018;28;20054;-78
2022/11/28 19:29:17;;;;;;;2.10;1.20;;;8.80;99.90;;;;;;4975775;28;20057;-79
2022/11/28 19:31:44;;;;;;;2.90;1.65;;;8.80;99.90;;;;;;4971659;28;20515;-79
2022/11/28 19:34:16;;;;;;;2.60;1.85;;;8.80;99.90;;;;;;4975657;28;20051;-78
2022/11/28 19:36:45;;;;;;;2.30;1.90;;;8.80;99.90;;;;;;4971324;28;20115;-77
2022/11/28 19:39:19;;;;;;;2.10;1.50;;;8.80;99.90;;;;;;4974510;28;20081;-78
2022/11/28 19:41:46;;;;;;;2.80;2.20;;;8.90;99.90;;;;;;4974124;28;20321;-77
2022/11/28 19:44:14;;;;;;;3.30;1.90;;;8.90;99.90;;;;;;4973335;28;20054;-78
2022/11/28 19:46:41;;;;;;;2.80;1.50;;;8.90;99.90;;;;;;4975426;28;20043;-80
2022/11/28 19:49:15;;;;;;;2.05;1.48;;;8.90;99.90;;;;;;4973297;28;20058;-79
2022/11/28 19:51:41;;;;;;;4.30;1.80;;;8.90;99.90;;;;;;4973190;28;20049;-79
2022/11/28 19:54:08;;;;;;;4.18;2.08;;;8.90;99.90;;;;;;4973065;28;20057;-77
2022/11/28 19:56:35;;;;;;;3.60;2.20;;;8.90;99.90;;;;;;4977431;28;20043;-80
2022/11/28 19:59:01;;;;;;;3.05;2.17;;;8.90;99.90;;;;;;4976223;28;20057;-77
2022/11/28 20:01:28;;;;;;;3.95;1.50;;;8.90;99.90;;;;;;4957521;28;20137;-80
2022/11/28 20:03:58;;;;;;;3.55;1.67;;;8.90;99.90;;;;;;4962954;28;20144;-81
2022/11/28 20:06:27;;;;;;;2.80;2.20;;;8.90;99.90;;;;;;4973951;28;20093;-79
2022/11/28 20:08:57;;;;;;;3.42;1.27;;;8.90;99.90;;;;;;4972949;28;20047;-79
2022/11/28 20:11:27;;;;;;;2.63;1.30;;;8.80;99.90;;;;;;4975380;28;20053;-79
2022/11/28 20:13:56;;;;;;;2.85;1.35;;;8.80;99.90;;;;;;4975575;28;20535;-79
2022/11/28 20:16:23;;;;;;;2.38;1.40;;;8.80;99.90;;;;;;4971924;28;20080;-79
2022/11/28 20:18:50;;;;;;;2.28;1.75;;;8.80;99.90;;;;;;4974337;28;20508;-79
2022/11/28 20:21:19;;;;;;;2.30;1.70;;;8.80;99.90;;;;;;4972306;28;20051;-78
2022/11/28 20:23:52;;;;;;;5.10;1.70;;;8.80;99.90;;;;;;4975487;28;20412;-78
2022/11/28 20:26:22;;;;;;;7.55;2.15;;;8.80;99.90;;;;;;4957076;28;20051;-79
2022/11/28 20:28:49;;;;;;;3.25;2.00;;;8.80;99.90;;;;;;4974669;28;20077;-77
2022/11/28 20:31:18;;;;;;;4.32;1.90;;;8.80;99.90;;;;;;4974047;28;20112;-79
2022/11/28 20:33:46;;;;;;;2.58;1.83;;;8.70;99.90;;;;;;4978228;28;20047;-80
2022/11/28 20:36:16;;;;;;;4.80;1.80;;;8.80;99.90;;;;;;4971552;28;20058;-79
2022/11/28 20:38:43;;;;;;;1.90;1.25;;;8.80;99.90;;;;;;4968248;29;20062;-79
2022/11/28 20:41:11;;;;;;;2.58;1.83;;;8.80;99.90;;;;;;4975506;29;20051;-80
2022/11/28 20:43:39;;;;;;;5.28;2.22;;;8.70;99.90;;;;;;4976002;29;20057;-81
2022/11/28 20:46:08;;;;;;;8.60;3.50;;;8.70;99.90;;;;;;4969997;28;20047;-79
2022/11/28 20:48:36;;;;;;;5.57;3.28;;;8.60;99.90;;;;;;4973248;28;20050;-79
2022/11/28 20:51:08;;;;;;;4.55;2.78;;;8.70;99.90;;;;;;4980372;28;20071;-80
2022/11/28 20:53:36;;;;;;;4.95;1.67;;;8.70;99.90;;;;;;4966287;29;20093;-81
2022/11/28 20:56:05;;;;;;;3.72;1.45;;;8.70;99.90;;;;;;4969470;28;20051;-78
2022/11/28 20:58:32;;;;;;;3.97;1.60;;;8.70;99.90;;;;;;4971352;28;20058;-80
2022/11/28 21:00:59;;;;;;;5.40;1.95;;;8.70;99.90;;;;;;4981499;28;20057;-79
2022/11/28 21:03:26;;;;;;;6.28;2.28;;;8.70;99.90;;;;;;4974790;28;20063;-79
2022/11/28 21:05:53;;;;;;;2.85;1.63;;;8.60;99.90;;;;;;4978576;28;20390;-79
2022/11/28 21:08:29;;;;;;;3.65;1.58;;;8.60;99.90;;;;;;4983342;28;20050;-80
2022/11/28 21:10:56;;;;;;;8.87;1.67;;;8.60;99.90;;;;;;4967728;28;20046;-80
2022/11/28 21:13:23;;;;;;;6.95;2.17;;;8.50;99.90;;;;;;4968635;28;20309;-78
2022/11/28 21:15:50;;;;;;;9.63;2.35;;;8.60;99.90;;;;;;4976585;28;20444;-80